createdAt,value
2023-10-13T00:00:37.296Z,100764.09
2023-10-13T00:04:43.406Z,100761.88
2023-10-13T00:08:46.944Z,100755.03
2023-10-13T00:12:51.733Z,100750.06
2023-10-13T00:17:05.461Z,100753.91
2023-10-13T00:21:13.782Z,100745.09
2023-10-13T00:25:27.256Z,100729.72
2023-10-13T00:29:38.586Z,100732.47
2023-10-13T00:33:42.881Z,100726.69
2023-10-13T00:37:45.959Z,100724.78
2023-10-13T00:41:53.430Z,100728.88
2023-10-13T00:45:59.260Z,100712.38
2023-10-13T00:50:02.328Z,100712.69
2023-10-13T00:54:09.158Z,100709.34
2023-10-13T00:58:13.963Z,100704.94
2023-10-13T01:02:39.803Z,100706.59
2023-10-13T01:06:42.652Z,100695.88
2023-10-13T01:10:45.370Z,100692.03
2023-10-13T01:14:48.510Z,100696.19
2023-10-13T01:18:52.587Z,100678.06
2023-10-13T01:22:57.433Z,100689.31
2023-10-13T01:27:08.940Z,100681.88
2023-10-13T01:31:13.589Z,100681.84
2023-10-13T01:35:19.758Z,100677.44
2023-10-13T01:39:27.626Z,100676.03
2023-10-13T01:43:32.839Z,100662.56
2023-10-13T01:47:37.494Z,100662.28
2023-10-13T01:51:40.791Z,100646.88
2023-10-13T01:55:45.056Z,100652.91
2023-10-13T01:59:50.381Z,100633.66
2023-10-13T02:04:02.649Z,100628.47
2023-10-13T02:08:07.425Z,100622.16
2023-10-13T02:12:10.444Z,100627.34
2023-10-13T02:16:19.711Z,100615.53
2023-10-13T02:20:25.171Z,100606.47
2023-10-13T02:24:31.174Z,100608.09
2023-10-13T02:28:36.154Z,100606.25
2023-10-13T02:32:41.552Z,100603.41
2023-10-13T02:36:49.839Z,100586.41
2023-10-13T02:40:55.056Z,100583.34
2023-10-13T02:44:58.898Z,100585.81
2023-10-13T02:49:10.482Z,100570.44
2023-10-13T02:53:19.580Z,100578.97
2023-10-13T02:57:24.868Z,100563.31
2023-10-13T03:01:30.198Z,100560.56
2023-10-13T03:05:40.212Z,100561.66
2023-10-13T03:09:51.279Z,100556.47
2023-10-13T03:13:54.211Z,100549.59
2023-10-13T03:17:59.665Z,100556.47
2023-10-13T03:22:10.896Z,100544.34
2023-10-13T03:26:18.022Z,100538.84
2023-10-13T03:30:22.506Z,100539.16
2023-10-13T03:34:30.820Z,100534.16
2023-10-13T03:38:37.777Z,100527.34
2023-10-13T03:42:41.579Z,100518.53
2023-10-13T03:46:46.528Z,100499.28
2023-10-13T03:50:58.895Z,100502.88
2023-10-13T03:55:06.663Z,100494.63
2023-10-13T03:59:18.829Z,100489.13
2023-10-13T04:03:34.348Z,100475.66
2023-10-13T04:08:02.874Z,100468.53
2023-10-13T04:12:40.007Z,100470.69
2023-10-13T04:16:53.107Z,100451.75
2023-10-13T04:21:08.876Z,100438.81
2023-10-13T04:25:27.633Z,100434.13
2023-10-13T04:29:47.161Z,100429.75
2023-10-13T04:34:03.225Z,100428.19
2023-10-13T04:38:19.515Z,100421.56
2023-10-13T04:42:40.180Z,100419.13
2023-10-13T04:47:09.170Z,100399.88
2023-10-13T04:51:45.522Z,100387.25
2023-10-13T04:56:01.266Z,100373.22
2023-10-13T05:00:29.179Z,100358.66
2023-10-13T05:05:00.226Z,100345.50
2023-10-13T05:09:21.080Z,100333.16
2023-10-13T05:13:41.647Z,100318.91
2023-10-13T05:18:01.997Z,100321.94
2023-10-13T05:22:23.577Z,100313.72
2023-10-13T05:26:43.822Z,100301.66
2023-10-13T05:31:04.554Z,100303.06
2023-10-13T05:35:25.259Z,100300.31
2023-10-13T05:39:47.519Z,100295.13
2023-10-13T05:44:08.064Z,100268.78
2023-10-13T05:48:15.196Z,100271.28
2023-10-13T05:52:41.225Z,100268.84
2023-10-13T05:57:04.871Z,100262.22
2023-10-13T06:01:25.431Z,100269.06
2023-10-13T06:05:46.021Z,100253.09
2023-10-13T06:10:07.405Z,100248.69
2023-10-13T06:14:30.212Z,100266.53
2023-10-13T06:18:50.794Z,100246.94
2023-10-13T06:23:11.367Z,100246.25
2023-10-13T06:27:31.955Z,100265.88
2023-10-13T06:31:36.458Z,100260.50
2023-10-13T06:35:40.169Z,100269.75
2023-10-13T06:39:42.870Z,100267.47
2023-10-13T06:43:45.559Z,100278.34
2023-10-13T06:47:54.402Z,100272.41
2023-10-13T06:52:01.571Z,100259.06
2023-10-13T06:56:05.496Z,100267.56
2023-10-13T07:00:13.350Z,100254.22
2023-10-13T07:04:17.894Z,100248.59
2023-10-13T07:08:21.779Z,100246.59
2023-10-13T07:12:25.751Z,100250.75
2023-10-13T07:16:36.316Z,100241.31
2023-10-13T07:20:44.903Z,100247.81
2023-10-13T07:24:49.626Z,100243.66
2023-10-13T07:28:53.052Z,100247.72
2023-10-13T07:32:59.007Z,100246.41
2023-10-13T07:37:08.937Z,100245.28
2023-10-13T07:41:16.692Z,100223.44
2023-10-13T07:45:26.129Z,100217.03
2023-10-13T07:49:37.756Z,100218.88
2023-10-13T07:53:44.566Z,100202.06
2023-10-13T07:57:56.138Z,100200.94
2023-10-13T08:06:29.866Z,100185.63
2023-10-13T08:10:37.834Z,100158.72
2023-10-13T08:14:41.798Z,100147.09
2023-10-13T08:18:44.713Z,100143.34
2023-10-13T08:22:50.286Z,100146.28
2023-10-13T08:27:22.066Z,100147.41
2023-10-13T08:31:23.920Z,100133.00
2023-10-13T08:35:36.217Z,100132.94
2023-10-13T08:39:54.264Z,100119.38
2023-10-13T08:44:04.597Z,100112.09
2023-10-13T08:48:13.697Z,100104.06
2023-10-13T08:52:47.796Z,100090.03
2023-10-13T08:56:57.552Z,100114.22
2023-10-13T09:01:13.210Z,100109.91
2023-10-13T09:05:31.170Z,100122.63
2023-10-13T09:09:43.701Z,100110.22
2023-10-13T09:13:47.817Z,100114.66
2023-10-13T09:17:55.307Z,100103.59
2023-10-13T09:21:58.410Z,100112.31
2023-10-13T09:26:11.053Z,100091.16
2023-10-13T09:30:23.917Z,100093.66
2023-10-13T09:34:30.351Z,100078.28
2023-10-13T09:38:34.990Z,100067.78
2023-10-13T09:42:39.181Z,100083.19
2023-10-13T09:46:45.724Z,100074.63
2023-10-13T09:50:50.455Z,100074.97
2023-10-13T09:55:11.546Z,100059.38
2023-10-13T09:59:20.213Z,100065.78
2023-10-13T10:03:41.614Z,100062.38
2023-10-13T10:07:45.015Z,100048.56
2023-10-13T10:12:02.787Z,100044.16
2023-10-13T10:16:15.434Z,100058.66
2023-10-13T10:20:34.179Z,100060.41
2023-10-13T10:24:37.824Z,100047.75
2023-10-13T10:28:43.084Z,100055.22
2023-10-13T10:32:50.025Z,100045.16
2023-10-13T10:36:57.359Z,100039.78
2023-10-13T10:41:02.355Z,100031.97
2023-10-13T10:45:12.744Z,100031.19
2023-10-13T10:49:19.862Z,100019.16
2023-10-13T10:53:34.139Z,100002.44
2023-10-13T10:57:39.400Z,100006.47
2023-10-13T11:01:49.145Z,100002.25
2023-10-13T11:05:52.081Z,99991.56
2023-10-13T11:10:08.293Z,99990.41
2023-10-13T11:14:24.126Z,99979.03
2023-10-13T11:18:35.260Z,99975.75
2023-10-13T11:22:43.147Z,99947.78
2023-10-13T11:26:51.329Z,99946.00
2023-10-13T11:30:54.522Z,99926.81
2023-10-13T11:34:59.882Z,99916.72
2023-10-13T11:39:03.261Z,99922.22
2023-10-13T11:43:14.667Z,99899.53
2023-10-13T11:51:52.174Z,99911.22
2023-10-13T11:55:54.901Z,99897.50
2023-10-13T12:00:20.421Z,99886.44
2023-10-13T12:04:34.352Z,99883.03
2023-10-13T12:08:50.330Z,99893.28
2023-10-13T12:12:55.612Z,99892.78
2023-10-13T12:17:04.947Z,99869.47
2023-10-13T12:21:12.146Z,99865.03
2023-10-13T12:25:26.527Z,99860.75
2023-10-13T12:29:30.239Z,99854.84
2023-10-13T12:33:38.859Z,99841.47
2023-10-13T12:37:51.905Z,99843.28
2023-10-13T12:42:13.727Z,99837.91
2023-10-13T12:46:34.284Z,99845.53
2023-10-13T12:50:45.411Z,99828.97
2023-10-13T12:54:59.758Z,99841.94
2023-10-13T12:59:10.167Z,99832.78
2023-10-13T13:03:14.780Z,99843.06
2023-10-13T13:07:17.926Z,99846.09
2023-10-13T13:11:21.815Z,99840.47
2023-10-13T13:15:26.889Z,99835.53
2023-10-13T13:19:29.527Z,99827.13
2023-10-13T13:23:32.548Z,99807.63
2023-10-13T13:27:35.364Z,99817.91
2023-10-13T13:31:44.492Z,99808.13
2023-10-13T13:35:50.050Z,99811.56
2023-10-13T13:39:54.125Z,99814.78
2023-10-13T13:43:58.000Z,99812.97
2023-10-13T13:48:08.885Z,99807.88
2023-10-13T13:52:18.772Z,99816.53
2023-10-13T13:56:22.002Z,99812.63
2023-10-13T14:00:38.208Z,99810.44
2023-10-13T14:04:47.716Z,99804.09
2023-10-13T14:08:56.034Z,99806.16
2023-10-13T14:13:13.984Z,99814.34
2023-10-13T14:17:16.751Z,99800.47
2023-10-13T14:21:25.201Z,99806.97
2023-10-13T14:25:29.766Z,99805.69
2023-10-13T14:29:32.606Z,99806.47
2023-10-13T14:33:35.280Z,99800.22
2023-10-13T14:37:39.368Z,99817.41
2023-10-13T14:41:42.518Z,99814.84
2023-10-13T14:45:45.237Z,99816.44
2023-10-13T14:49:48.078Z,99795.84
2023-10-13T14:53:57.223Z,99798.34
2023-10-13T14:58:00.081Z,99799.06
2023-10-13T15:02:03.966Z,99796.38
2023-10-13T15:06:07.025Z,99806.03
2023-10-13T15:10:15.868Z,99802.81
2023-10-13T15:14:21.287Z,99798.97
2023-10-13T15:18:24.388Z,99801.47
2023-10-13T15:22:28.982Z,99806.03
2023-10-13T15:26:38.595Z,99785.88
2023-10-13T15:30:53.038Z,99800.16
2023-10-13T15:34:56.886Z,99793.81
2023-10-13T15:38:59.658Z,99800.16
2023-10-13T15:43:06.541Z,99801.94
2023-10-13T15:51:19.092Z,99799.63
2023-10-13T15:55:21.818Z,99805.03
2023-10-13T15:59:25.909Z,99809.00
2023-10-13T16:03:30.915Z,99808.19
2023-10-13T16:07:35.287Z,99800.75
2023-10-13T16:11:38.049Z,99790.75
2023-10-13T16:15:44.010Z,99799.94
2023-10-13T16:19:50.098Z,99784.91
2023-10-13T16:23:53.887Z,99779.75
2023-10-13T16:27:58.759Z,99789.53
2023-10-13T16:32:02.828Z,99787.28
2023-10-13T16:36:09.655Z,99757.28
2023-10-13T16:40:16.329Z,99742.81
2023-10-13T16:44:19.130Z,99731.16
2023-10-13T16:48:23.220Z,99727.13
2023-10-13T16:52:25.947Z,99731.53
2023-10-13T16:56:28.877Z,99738.97
2023-10-13T17:00:33.271Z,99730.53
2023-10-13T17:04:37.483Z,99716.09
2023-10-13T17:08:41.125Z,99715.47
2023-10-13T17:12:44.050Z,99722.09
2023-10-13T17:16:48.628Z,99710.25
2023-10-13T17:20:52.819Z,99709.31
2023-10-13T17:24:55.726Z,99703.16
2023-10-13T17:28:59.849Z,99698.09
2023-10-13T17:33:02.951Z,99688.19
2023-10-13T17:37:07.075Z,99679.63
2023-10-13T17:41:14.268Z,99666.16
2023-10-13T17:45:17.387Z,99665.34
2023-10-13T17:49:20.302Z,99680.59
2023-10-13T17:53:24.399Z,99682.56
2023-10-13T17:57:29.027Z,99697.53
2023-10-13T18:01:33.091Z,99751.88
2023-10-13T18:05:36.784Z,99769.81
2023-10-13T18:09:41.916Z,99741.88
2023-10-13T18:13:46.762Z,99749.22
2023-10-13T18:17:49.650Z,99734.03
2023-10-13T18:21:52.434Z,99722.88
2023-10-13T18:25:56.793Z,99707.88
2023-10-13T18:29:59.490Z,99710.22
2023-10-13T18:34:03.478Z,99714.91
2023-10-13T18:38:06.747Z,99702.41
2023-10-13T18:42:10.786Z,99723.91
2023-10-13T18:46:14.887Z,99719.22
2023-10-13T18:50:18.138Z,99714.53
2023-10-13T18:54:20.820Z,99702.72
2023-10-13T18:58:27.012Z,99705.03
2023-10-13T19:02:31.663Z,99701.63
2023-10-13T19:06:35.967Z,99690.47
2023-10-13T19:10:39.012Z,99709.72
2023-10-13T19:14:43.038Z,99728.84
2023-10-13T19:18:47.681Z,99707.66
2023-10-13T19:22:53.593Z,99670.28
2023-10-13T19:26:56.848Z,99669.66
2023-10-13T19:31:00.952Z,99671.75
2023-10-13T19:35:03.712Z,99677.78
2023-10-13T19:39:09.644Z,99662.41
2023-10-13T19:43:23.199Z,99637.47
2023-10-13T19:47:27.196Z,99640.03
2023-10-13T19:51:29.967Z,99660.22
2023-10-13T19:55:40.772Z,99643.53
2023-10-13T19:59:43.473Z,99619.09
2023-10-13T20:03:47.954Z,99592.91
2023-10-13T20:07:50.978Z,99586.59
2023-10-13T20:11:53.955Z,99557.81
2023-10-13T20:15:56.791Z,99568.47
2023-10-13T20:20:01.422Z,99563.97
2023-10-13T20:24:05.796Z,99555.25
2023-10-13T20:28:09.405Z,99562.84
2023-10-13T20:32:15.765Z,99554.47
2023-10-13T20:36:24.351Z,99553.50
2023-10-13T20:40:28.483Z,99534.91
2023-10-13T20:44:31.153Z,99543.16
2023-10-13T20:48:34.045Z,99539.00
2023-10-13T20:52:38.287Z,99537.03
2023-10-13T20:56:41.470Z,99536.41
2023-10-13T21:00:44.976Z,99538.81
2023-10-13T21:04:48.039Z,99521.03
2023-10-13T21:08:54.702Z,99506.47
2023-10-13T21:12:58.945Z,99511.97
2023-10-13T21:17:01.785Z,99503.03
2023-10-13T21:21:09.078Z,99493.50
2023-10-13T21:25:23.222Z,99493.50
2023-10-13T21:29:26.061Z,99481.69
2023-10-13T21:33:28.985Z,99487.19
2023-10-13T21:37:32.703Z,99490.56
2023-10-13T21:41:38.413Z,99475.88
2023-10-13T21:45:41.524Z,99487.84
2023-10-13T21:49:47.170Z,99479.63
2023-10-13T21:53:50.099Z,99481.56
2023-10-13T21:57:54.496Z,99521.91
2023-10-13T22:01:57.267Z,99495.34
2023-10-13T22:06:01.730Z,99483.38
2023-10-13T22:10:06.956Z,99428.81
2023-10-13T22:14:13.992Z,99454.91
2023-10-13T22:18:16.982Z,99463.63
2023-10-13T22:22:19.742Z,99462.16
2023-10-13T22:26:23.508Z,99487.38
2023-10-13T22:30:30.333Z,99471.38
2023-10-13T22:34:33.395Z,99456.28
2023-10-13T22:38:37.056Z,99481.34
2023-10-13T22:42:40.120Z,99486.47
2023-10-13T22:46:44.407Z,99463.03
2023-10-13T22:50:47.122Z,99450.22
2023-10-13T22:54:49.850Z,99433.47
2023-10-13T22:58:52.850Z,99435.41
2023-10-13T23:02:57.044Z,99436.00
2023-10-13T23:07:00.380Z,99443.06
2023-10-13T23:11:15.200Z,99439.59
2023-10-13T23:15:18.149Z,99459.44
2023-10-13T23:19:23.967Z,99455.31
2023-10-13T23:23:27.120Z,99447.22
2023-10-13T23:27:29.884Z,99448.66
2023-10-13T23:31:33.122Z,99457.31
2023-10-13T23:35:37.149Z,99488.25
2023-10-13T23:39:40.715Z,99507.22
2023-10-13T23:43:46.304Z,99532.50
2023-10-13T23:47:49.107Z,99552.47
2023-10-13T23:51:55.029Z,99545.25
2023-10-13T23:56:02.638Z,99551.63
